Time;durP1;ratioP1;P1;durP2;ratioP2;P2;SDS_P1;SDS_P2;PMS_P1;PMS_P2;Temp;Humidity;BMP_temperature;BMP_pressure;BME280_temperature;BME280_humidity;BME280_pressure;Samples;Min_cycle;Max_cycle;Signal;HPM_P1;HPM_P2
2022/06/29 00:00:39;;;;;;;6.60;6.12;;;;;;;22.46;100.00;99719.58;1635628;85;21394;-57
2022/06/29 00:03:06;;;;;;;5.42;5.12;;;;;;;22.47;100.00;99721.31;1632051;86;21058;-58
2022/06/29 00:05:33;;;;;;;5.67;5.42;;;;;;;22.48;100.00;99725.78;1635784;85;21133;-58
2022/06/29 00:08:00;;;;;;;6.03;5.53;;;;;;;22.47;100.00;99725.42;1632121;86;21137;-57
2022/06/29 00:10:26;;;;;;;6.20;5.80;;;;;;;22.46;100.00;99722.32;1635312;86;21269;-57
2022/06/29 00:12:53;;;;;;;6.15;5.72;;;;;;;22.41;100.00;99725.17;1632584;85;21118;-57
2022/06/29 00:15:20;;;;;;;6.80;6.17;;;;;;;22.37;100.00;99734.73;1572145;89;21527;-58
2022/06/29 00:17:48;;;;;;;7.95;6.20;;;;;;;22.35;100.00;99728.02;1637632;86;21327;-58
2022/06/29 00:20:15;;;;;;;10.25;7.35;;;;;;;22.34;100.00;99728.16;1637034;85;21002;-57
2022/06/29 00:22:42;;;;;;;5.97;5.62;;;;;;;22.33;100.00;99734.14;1638516;86;21580;-57
2022/06/29 00:25:10;;;;;;;7.42;5.67;;;;;;;22.32;100.00;99734.29;1638710;86;21066;-57
2022/06/29 00:27:36;;;;;;;11.22;6.50;;;;;;;22.30;100.00;99734.44;1639211;85;21544;-58
2022/06/29 00:30:04;;;;;;;7.12;6.40;;;;;;;22.28;100.00;99737.86;1636836;85;20950;-58
2022/06/29 00:32:30;;;;;;;11.00;8.08;;;;;;;22.28;100.00;99742.47;1600098;88;21441;-58
2022/06/29 00:34:58;;;;;;;11.60;7.28;;;;;;;22.29;100.00;99745.58;1639524;85;21221;-57
2022/06/29 00:37:25;;;;;;;5.78;5.47;;;;;;;22.26;100.00;99749.47;1640544;85;21939;-58
2022/06/29 00:39:52;;;;;;;4.40;4.17;;;;;;;22.24;100.00;99741.39;1638539;85;21062;-57
2022/06/29 00:42:18;;;;;;;5.65;5.45;;;;;;;22.18;100.00;99743.36;1632824;86;20973;-57
2022/06/29 00:44:45;;;;;;;6.30;5.50;;;;;;;22.12;100.00;99740.32;1637440;86;21014;-57
2022/06/29 00:47:11;;;;;;;5.65;5.25;;;;;;;22.08;100.00;99737.02;1639932;86;21109;-57
2022/06/29 00:49:37;;;;;;;5.47;5.17;;;;;;;22.05;100.00;99738.67;1637873;86;22059;-57
2022/06/29 00:52:12;;;;;;;5.28;4.97;;;;;;;22.03;100.00;99740.70;1636613;85;21185;-57
2022/06/29 00:54:49;;;;;;;5.67;5.47;;;;;;;22.04;100.00;99733.34;1632239;86;21504;-58
2022/06/29 00:57:18;;;;;;;6.65;6.25;;;;;;;22.06;100.00;99732.70;1637311;86;22186;-57
2022/06/29 00:59:47;;;;;;;5.97;5.78;;;;;;;22.05;100.00;99736.44;1633227;85;21130;-57
2022/06/29 01:02:19;;;;;;;6.75;6.35;;;;;;;21.99;100.00;99727.45;1633796;85;21362;-57
2022/06/29 01:04:46;;;;;;;5.65;5.45;;;;;;;21.93;100.00;99733.48;1636554;85;21536;-57
2022/06/29 01:07:18;;;;;;;6.42;5.90;;;;;;;21.83;100.00;99734.36;1639887;85;20934;-57
2022/06/29 01:09:45;;;;;;;6.12;5.50;;;;;;;21.74;100.00;99727.02;1635583;86;20978;-57
2022/06/29 01:12:12;;;;;;;8.98;6.42;;;;;;;21.71;100.00;99738.76;1634830;85;21218;-57
2022/06/29 01:14:43;;;;;;;5.55;5.15;;;;;;;21.70;100.00;99733.78;1639059;85;21468;-57
2022/06/29 01:17:11;;;;;;;5.20;5.00;;;;;;;21.71;100.00;99736.88;1600408;86;21390;-57
2022/06/29 01:19:39;;;;;;;5.42;5.12;;;;;;;21.73;100.00;99730.77;1597296;88;21127;-57
2022/06/29 01:22:18;;;;;;;5.28;4.97;;;;;;;21.73;100.00;99730.77;1591983;88;21148;-57
2022/06/29 01:24:45;;;;;;;4.97;4.78;;;;;;;21.73;100.00;99731.27;1637534;85;22092;-58
2022/06/29 01:27:13;;;;;;;5.92;5.62;;;;;;;21.71;100.00;99734.14;1635992;85;21130;-58
2022/06/29 01:29:39;;;;;;;6.47;6.17;;;;;;;21.68;100.00;99737.20;1637591;85;21125;-57
2022/06/29 01:32:06;;;;;;;7.05;6.75;;;;;;;21.62;100.00;99737.75;1636855;85;21630;-57
2022/06/29 01:34:33;;;;;;;6.85;6.45;;;;;;;21.60;100.00;99736.19;1635202;85;21117;-57
2022/06/29 01:36:59;;;;;;;5.33;5.03;;;;;;;21.57;100.00;99733.22;1637233;86;22421;-57
2022/06/29 01:39:26;;;;;;;5.25;4.85;;;;;;;21.55;100.00;99735.23;1634455;85;21133;-58
2022/06/29 01:41:53;;;;;;;6.53;5.97;;;;;;;21.55;100.00;99742.08;1644691;85;21105;-57
2022/06/29 01:44:20;;;;;;;5.30;5.10;;;;;;;21.52;100.00;99740.48;1641364;85;21183;-57
2022/06/29 01:46:46;;;;;;;6.50;6.10;;;;;;;21.52;100.00;99741.02;1648615;85;21081;-57
2022/06/29 01:49:12;;;;;;;5.25;4.95;;;;;;;21.50;100.00;99747.14;1605292;87;21155;-54
2022/06/29 01:51:39;;;;;;;5.85;5.65;;;;;;;21.42;100.00;99747.85;1609981;87;21096;-54
2022/06/29 01:54:07;;;;;;;5.53;5.05;;;;;;;21.35;100.00;99756.78;1603806;87;21145;-55
2022/06/29 01:56:34;;;;;;;6.25;5.95;;;;;;;21.34;100.00;99758.66;1634825;85;21130;-55
2022/06/29 01:59:01;;;;;;;6.28;5.97;;;;;;;21.36;100.00;99754.38;1637028;86;21101;-53
2022/06/29 02:01:28;;;;;;;6.97;6.37;;;;;;;21.38;100.00;99753.73;1637444;85;21249;-58
2022/06/29 02:03:54;;;;;;;6.65;6.35;;;;;;;21.39;100.00;99754.11;1637377;85;21484;-53
2022/06/29 02:06:21;;;;;;;5.33;5.12;;;;;;;21.40;100.00;99751.23;1650150;85;21106;-55
2022/06/29 02:08:48;;;;;;;7.17;6.78;;;;;;;21.43;100.00;99750.95;1646659;85;21058;-54
2022/06/29 02:11:14;;;;;;;7.50;7.10;;;;;;;21.46;100.00;99749.78;1647929;85;21563;-53
2022/06/29 02:13:41;;;;;;;7.67;7.28;;;;;;;21.49;100.00;99753.62;1647102;85;21204;-54
2022/06/29 02:16:08;;;;;;;8.35;7.83;;;;;;;21.50;100.00;99758.09;1649869;85;21153;-53
2022/06/29 02:18:35;;;;;;;9.30;8.80;;;;;;;21.50;100.00;99767.67;1647481;85;21496;-54
2022/06/29 02:21:02;;;;;;;7.25;6.92;;;;;;;21.49;100.00;99772.28;1645063;85;21675;-54
2022/06/29 02:23:29;;;;;;;8.25;7.65;;;;;;;21.49;100.00;99782.38;1650991;85;21116;-58
2022/06/29 02:25:55;;;;;;;8.63;8.13;;;;;;;21.47;100.00;99798.07;1650900;85;21138;-57
2022/06/29 02:28:22;;;;;;;8.33;7.72;;;;;;;21.46;100.00;99807.29;1578829;89;21079;-53
2022/06/29 02:36:19;;;;;;;6.50;6.20;;;;;;;21.48;100.00;99806.15;1611149;87;21120;-58
2022/06/29 02:38:45;;;;;;;7.80;7.15;;;;;;;21.51;100.00;99801.77;1604339;87;21245;-55
2022/06/29 02:41:11;;;;;;;7.90;7.42;;;;;;;21.52;100.00;99804.01;1630313;86;22324;-54
2022/06/29 02:43:38;;;;;;;7.58;6.97;;;;;;;21.55;100.00;99807.81;1635964;85;21098;-54
2022/06/29 02:46:05;;;;;;;7.25;6.75;;;;;;;21.57;100.00;99811.78;1637792;87;21104;-55
2022/06/29 02:48:36;;;;;;;8.28;7.78;;;;;;;21.59;100.00;99805.67;1634763;85;21392;-55
2022/06/29 02:51:00;;;;;;;6.95;6.55;;;;;;;21.59;100.00;99813.88;1607911;87;21860;-55
2022/06/29 02:53:26;;;;;;;7.25;6.75;;;;;;;21.59;100.00;99802.93;1603368;87;21403;-54
2022/06/29 02:55:54;;;;;;;8.20;6.72;;;;;;;21.61;100.00;99810.47;1604586;87;21401;-57
2022/06/29 02:58:20;;;;;;;6.47;6.08;;;;;;;21.62;100.00;99807.59;1603471;87;21095;-54
2022/06/29 03:00:47;;;;;;;6.30;5.83;;;;;;;21.65;100.00;99804.58;1603744;87;21098;-54
2022/06/29 03:03:13;;;;;;;6.47;5.35;;;;;;;21.68;100.00;99808.42;1607064;87;21249;-54
2022/06/29 03:05:40;;;;;;;6.67;6.05;;;;;;;21.71;100.00;99807.24;1603170;87;21080;-53
2022/06/29 03:08:07;;;;;;;5.90;5.60;;;;;;;21.75;100.00;99808.20;1601845;87;21544;-54
2022/06/29 03:10:34;;;;;;;7.40;6.92;;;;;;;21.79;100.00;99810.13;1606223;87;21398;-58
2022/06/29 03:13:00;;;;;;;7.40;7.05;;;;;;;21.83;100.00;99806.11;1604384;87;21048;-57
2022/06/29 03:15:27;;;;;;;6.28;5.83;;;;;;;21.88;100.00;99804.66;1610225;87;21137;-54
2022/06/29 03:17:54;;;;;;;6.10;5.80;;;;;;;21.93;100.00;99799.27;1601745;87;21067;-56
2022/06/29 03:20:20;;;;;;;7.12;6.78;;;;;;;21.99;100.00;99797.33;1606845;87;21138;-54
2022/06/29 03:22:47;;;;;;;6.03;5.62;;;;;;;22.04;100.00;99795.87;1603782;87;21502;-55
2022/06/29 03:25:15;;;;;;;7.30;6.83;;;;;;;22.08;100.00;99795.95;1608666;86;21506;-54
2022/06/29 03:27:42;;;;;;;6.95;6.60;;;;;;;22.10;100.00;99799.93;1609230;87;21262;-54
2022/06/29 03:30:10;;;;;;;6.45;6.05;;;;;;;22.09;100.00;99805.05;1609200;87;21518;-53
2022/06/29 03:32:37;;;;;;;6.83;6.33;;;;;;;22.10;100.00;99802.17;1606455;87;21162;-55
2022/06/29 03:35:05;;;;;;;5.55;5.35;;;;;;;22.14;100.00;99790.39;1637425;85;21169;-53
2022/06/29 03:37:32;;;;;;;5.28;5.08;;;;;;;22.17;100.00;99791.48;1635165;85;21433;-54
2022/06/29 03:39:58;;;;;;;6.53;6.03;;;;;;;22.17;100.00;99793.71;1633002;86;21138;-54
2022/06/29 03:42:25;;;;;;;6.47;5.97;;;;;;;22.21;100.00;99797.01;1651508;85;21065;-53
2022/06/29 03:44:51;;;;;;;5.40;5.03;;;;;;;22.25;100.00;99796.58;1646155;85;21396;-56
2022/06/29 03:47:18;;;;;;;5.72;4.92;;;;;;;22.31;100.00;99793.75;1648641;85;21559;-56
2022/06/29 03:49:44;;;;;;;5.92;5.62;;;;;;;22.36;100.00;99791.45;1644536;85;21140;-54
2022/06/29 03:52:11;;;;;;;6.55;5.95;;;;;;;22.44;100.00;99789.33;1606541;87;21508;-55
2022/06/29 03:54:37;;;;;;;6.65;6.08;;;;;;;22.52;100.00;99783.46;1601727;88;21109;-56
2022/06/29 03:57:04;;;;;;;6.90;6.50;;;;;;;22.62;100.00;99789.78;1640857;85;21348;-53
2022/06/29 03:59:31;;;;;;;7.72;7.10;;;;;;;22.73;100.00;99790.59;1637169;85;21157;-53
2022/06/29 04:01:57;;;;;;;7.10;6.45;;;;;;;22.85;100.00;99789.43;1633083;85;21132;-57
2022/06/29 04:04:24;;;;;;;7.35;6.95;;;;;;;22.97;100.00;99788.20;1621890;86;21190;-53
2022/06/29 04:06:50;;;;;;;6.78;6.47;;;;;;;23.08;100.00;99783.89;1632806;86;21185;-53
2022/06/29 04:09:17;;;;;;;8.03;7.50;;;;;;;23.21;100.00;99772.56;1637169;86;21125;-54
2022/06/29 04:11:49;;;;;;;6.72;6.37;;;;;;;23.34;100.00;99779.41;1631177;85;21078;-53
2022/06/29 04:14:16;;;;;;;7.28;6.72;;;;;;;23.45;100.00;99784.33;1637586;85;21101;-54
2022/06/29 04:16:43;;;;;;;7.00;6.35;;;;;;;23.55;100.00;99790.15;1642934;86;21242;-56
2022/06/29 04:19:09;;;;;;;6.72;6.33;;;;;;;23.66;100.00;99786.28;1637825;85;21504;-53
2022/06/29 04:21:36;;;;;;;5.80;5.50;;;;;;;23.76;100.00;99780.20;1639067;86;21137;-54
2022/06/29 04:24:02;;;;;;;6.05;5.62;;;;;;;23.87;100.00;99779.11;1635154;86;21631;-56
2022/06/29 04:26:29;;;;;;;4.55;4.22;;;;;;;23.97;100.00;99775.27;1637637;86;21085;-54
2022/06/29 04:28:55;;;;;;;6.00;5.70;;;;;;;24.11;100.00;99769.69;1638546;86;22394;-56
2022/06/29 04:31:22;;;;;;;6.25;5.92;;;;;;;24.23;100.00;99764.84;1636345;86;21117;-55
2022/06/29 04:33:48;;;;;;;5.22;5.03;;;;;;;24.34;100.00;99774.19;1631533;86;21117;-57
2022/06/29 04:36:15;;;;;;;5.47;5.28;;;;;;;24.46;100.00;99781.16;1641131;85;21444;-55
2022/06/29 04:38:42;;;;;;;6.83;6.47;;;;;;;24.56;100.00;99774.17;1634765;85;21597;-57
2022/06/29 04:41:08;;;;;;;5.95;5.55;;;;;;;24.65;100.00;99770.45;1635428;86;22454;-59
2022/06/29 04:43:35;;;;;;;5.92;5.72;;;;;;;24.71;100.00;99770.66;1633252;86;21145;-54
2022/06/29 04:46:20;;;;;;;6.33;5.92;;;;;;;24.76;100.00;99755.87;1633855;86;21161;-57
2022/06/29 04:48:56;;;;;;;5.00;4.70;;;;;;;24.84;100.00;99759.17;1637356;86;21101;-54
2022/06/29 04:51:23;;;;;;;4.62;4.42;;;;;;;24.90;100.00;99759.91;1634553;86;21072;-60
2022/06/29 04:53:54;;;;;;;5.78;5.47;;;;;;;24.96;100.00;99757.03;1637711;86;21138;-55
2022/06/29 04:56:18;;;;;;;5.90;5.70;;;;;;;25.04;100.00;99758.45;1637686;86;21077;-57
2022/06/29 04:58:45;;;;;;;5.55;5.00;;;;;;;25.08;100.00;99757.09;1603839;88;21072;-59
2022/06/29 05:01:11;;;;;;;5.40;4.85;;;;;;;25.13;100.00;99756.94;1601799;88;22272;-54
2022/06/29 05:03:38;;;;;;;6.45;5.55;;;;;;;25.19;100.00;99753.50;1596487;88;22443;-53
2022/06/29 05:06:05;;;;;;;6.85;6.55;;;;;;;25.25;100.00;99754.23;1636421;86;21244;-55
2022/06/29 05:08:33;;;;;;;7.17;6.60;;;;;;;25.32;100.00;99757.17;1637592;86;21333;-54
2022/06/29 05:11:00;;;;;;;7.37;6.58;;;;;;;25.40;100.00;99757.20;1632420;86;21126;-53
2022/06/29 05:13:26;;;;;;;6.33;5.75;;;;;;;25.50;100.00;99751.53;1599197;88;21030;-54
2022/06/29 05:15:53;;;;;;;5.78;5.15;;;;;;;25.59;100.00;99756.06;1638312;86;21101;-55
2022/06/29 05:18:19;;;;;;;7.78;5.50;;;;;;;25.69;100.00;99750.41;1635731;86;21111;-55
2022/06/29 05:20:46;;;;;;;5.62;5.12;;;;;;;25.80;100.00;99752.80;1635379;86;21049;-53
2022/06/29 05:23:14;;;;;;;4.08;3.77;;;;;;;25.91;100.00;99764.87;1635261;86;21047;-54
2022/06/29 05:25:40;;;;;;;5.12;4.42;;;;;;;26.00;100.00;99757.82;1633948;86;21018;-56
2022/06/29 05:28:08;;;;;;;3.08;2.98;;;;;;;26.11;100.00;99764.03;1641088;85;22502;-55
2022/06/29 05:30:35;;;;;;;3.02;2.92;;;;;;;26.16;100.00;99765.23;1641420;86;22010;-55
2022/06/29 05:33:01;;;;;;;2.37;2.20;;;;;;;26.22;100.00;99760.38;1643664;86;21059;-54
2022/06/29 05:35:29;;;;;;;3.10;2.77;;;;;;;26.27;100.00;99762.16;1638928;85;21109;-56
2022/06/29 05:37:56;;;;;;;3.25;2.60;;;;;;;26.29;100.00;99753.16;1642706;85;21821;-57
2022/06/29 05:40:24;;;;;;;3.52;3.42;;;;;;;26.33;100.00;99763.34;1643569;85;21082;-53
2022/06/29 05:42:51;;;;;;;3.33;3.00;;;;;;;26.35;100.00;99760.77;1639672;85;21587;-57
2022/06/29 05:45:18;;;;;;;4.00;3.70;;;;;;;26.38;100.00;99761.77;1635493;85;21340;-55
2022/06/29 05:50:13;;;;;;;4.50;4.00;;;;;;;26.48;100.00;99765.73;1785599;78;22636;-56
2022/06/29 05:52:40;;;;;;;4.28;4.08;;;;;;;26.46;100.00;99767.80;1739744;80;21013;-54
2022/06/29 05:55:07;;;;;;;5.35;5.08;;;;;;;26.49;100.00;99770.73;1755285;80;21248;-59
2022/06/29 05:57:54;;;;;;;5.20;4.90;;;;;;;26.53;100.00;99773.50;1709076;81;21543;-53
2022/06/29 06:00:20;;;;;;;6.53;6.22;;;;;;;26.56;100.00;99775.89;1608629;87;21582;-56
2022/06/29 06:02:47;;;;;;;5.72;5.17;;;;;;;26.61;100.00;99781.25;1617972;87;21505;-54
2022/06/29 06:05:14;;;;;;;5.53;5.15;;;;;;;26.65;100.00;99772.08;1608736;87;21038;-55
2022/06/29 06:07:40;;;;;;;4.45;4.35;;;;;;;26.70;100.00;99777.95;1614504;87;21532;-56
2022/06/29 06:10:08;;;;;;;5.08;4.67;;;;;;;26.75;100.00;99777.75;1613058;87;21107;-56
2022/06/29 06:12:35;;;;;;;5.60;5.20;;;;;;;26.80;100.00;99774.95;1613829;87;21002;-58
2022/06/29 06:15:03;;;;;;;7.22;5.55;;;;;;;26.86;100.00;99772.89;1620241;87;21073;-59
2022/06/29 06:17:29;;;;;;;5.50;5.30;;;;;;;26.90;100.00;99770.96;1617019;87;21116;-54
2022/06/29 06:19:58;;;;;;;5.97;5.58;;;;;;;26.92;100.00;99774.45;1611832;87;21241;-55
2022/06/29 06:22:24;;;;;;;5.42;5.22;;;;;;;26.94;100.00;99775.14;1607551;87;21105;-54
2022/06/29 06:24:51;;;;;;;8.00;7.37;;;;;;;26.99;100.00;99769.06;1608664;87;21120;-59
2022/06/29 06:27:17;;;;;;;6.50;6.30;;;;;;;27.05;100.00;99767.82;1609356;87;21128;-55
2022/06/29 06:29:45;;;;;;;8.60;8.03;;;;;;;27.11;100.00;99765.75;1582727;88;21101;-56
2022/06/29 06:32:12;;;;;;;5.95;5.75;;;;;;;27.17;100.00;99763.30;1612626;87;21199;-59
2022/06/29 06:34:38;;;;;;;7.33;6.92;;;;;;;27.21;100.00;99761.91;1581493;88;21088;-55
2022/06/29 06:37:04;;;;;;;6.25;6.05;;;;;;;27.25;100.00;99759.11;1611998;87;21784;-51
2022/06/29 06:39:31;;;;;;;7.22;6.87;;;;;;;27.29;100.00;99753.05;1611368;87;21077;-56
2022/06/29 06:41:58;;;;;;;7.87;7.42;;;;;;;27.34;100.00;99749.22;1609144;87;21513;-54
2022/06/29 06:44:25;;;;;;;6.87;6.55;;;;;;;27.40;100.00;99745.71;1611450;87;21189;-55
2022/06/29 06:46:52;;;;;;;6.97;6.42;;;;;;;27.45;100.00;99750.20;1612141;87;21102;-54
2022/06/29 06:49:23;;;;;;;6.92;6.50;;;;;;;27.52;100.00;99746.69;1610969;87;20970;-53
2022/06/29 06:51:47;;;;;;;6.85;6.65;;;;;;;27.56;100.00;99740.63;1609312;87;20990;-55
2022/06/29 06:54:14;;;;;;;8.05;7.35;;;;;;;27.63;100.00;99744.41;1616282;87;21120;-53
2022/06/29 06:56:41;;;;;;;7.20;6.70;;;;;;;27.68;100.00;99741.94;1616238;86;21228;-58
2022/06/29 06:59:07;;;;;;;10.82;7.80;;;;;;;27.74;100.00;99747.25;1624679;85;21095;-53
2022/06/29 07:01:34;;;;;;;6.60;5.78;;;;;;;27.79;100.00;99738.76;1615968;86;21134;-53
2022/06/29 07:04:01;;;;;;;6.33;6.03;;;;;;;27.86;100.00;99731.44;1616499;86;21114;-54
2022/06/29 07:06:27;;;;;;;7.45;6.55;;;;;;;27.94;100.00;99739.33;1618012;86;21142;-56
2022/06/29 07:08:54;;;;;;;5.62;5.33;;;;;;;28.01;100.00;99727.84;1617372;86;21181;-56
2022/06/29 07:11:22;;;;;;;5.40;5.03;;;;;;;28.08;100.00;99721.91;1621720;86;21674;-59
2022/06/29 07:13:49;;;;;;;6.50;5.92;;;;;;;28.13;100.00;99718.06;1622161;86;21083;-57
2022/06/29 07:16:16;;;;;;;5.70;5.40;;;;;;;28.16;100.00;99721.33;1620019;86;21121;-61
2022/06/29 07:18:42;;;;;;;6.55;5.95;;;;;;;28.15;100.00;99721.00;1615881;86;21114;-54
2022/06/29 07:21:08;;;;;;;6.05;5.33;;;;;;;28.16;100.00;99719.95;1654752;84;21253;-56
2022/06/29 07:23:35;;;;;;;6.05;5.60;;;;;;;28.20;100.00;99716.30;1650741;84;21070;-55
2022/06/29 07:26:02;;;;;;;6.85;6.17;;;;;;;28.22;100.00;99716.98;1653887;84;21130;-57
2022/06/29 07:28:28;;;;;;;5.45;5.15;;;;;;;28.24;100.00;99714.89;1653379;84;21178;-60
2022/06/29 07:30:55;;;;;;;4.97;4.50;;;;;;;28.28;100.00;99720.89;1618170;86;21145;-57
2022/06/29 07:33:21;;;;;;;5.42;5.03;;;;;;;28.34;100.00;99729.30;1616241;86;21172;-54
2022/06/29 07:35:48;;;;;;;4.92;4.53;;;;;;;28.37;100.00;99723.39;1621019;86;21074;-57
2022/06/29 07:38:14;;;;;;;5.40;5.17;;;;;;;28.37;100.00;99720.63;1618460;86;21050;-57
2022/06/29 07:40:41;;;;;;;7.28;4.75;;;;;;;28.40;100.00;99716.11;1652521;84;21121;-57
2022/06/29 07:43:08;;;;;;;5.00;4.72;;;;;;;28.45;100.00;99717.77;1651171;84;21129;-59
2022/06/29 07:45:34;;;;;;;4.55;4.03;;;;;;;28.52;100.00;99727.03;1651317;84;21256;-57
2022/06/29 07:48:02;;;;;;;4.22;3.95;;;;;;;28.55;100.00;99726.66;1649523;84;21065;-55
2022/06/29 07:50:28;;;;;;;7.15;4.28;;;;;;;28.61;100.00;99716.20;1653564;84;21157;-56
2022/06/29 07:52:55;;;;;;;5.33;4.62;;;;;;;28.69;100.00;99720.78;1651087;84;21114;-55
2022/06/29 07:55:21;;;;;;;4.28;3.72;;;;;;;28.77;100.00;99715.70;1655209;84;21109;-58
2022/06/29 07:57:50;;;;;;;4.83;4.37;;;;;;;28.82;100.00;99716.87;1647393;84;21574;-58
2022/06/29 08:00:16;;;;;;;3.90;3.60;;;;;;;28.90;100.00;99724.21;1649649;84;21102;-55
2022/06/29 08:02:43;;;;;;;4.15;3.87;;;;;;;28.93;100.00;99714.97;1654805;84;21062;-54
2022/06/29 08:05:10;;;;;;;6.30;4.70;;;;;;;28.99;100.00;99709.20;1648218;84;21646;-55
2022/06/29 08:07:37;;;;;;;6.60;4.25;;;;;;;29.04;100.00;99710.86;1649331;84;21636;-59
2022/06/29 08:10:05;;;;;;;6.22;4.78;;;;;;;29.06;100.00;99706.52;1650114;84;21241;-55
2022/06/29 08:12:32;;;;;;;4.20;4.00;;;;;;;29.10;100.00;99708.69;1650142;84;21083;-55
2022/06/29 08:14:58;;;;;;;4.50;4.20;;;;;;;29.17;100.00;99708.27;1650180;84;21073;-54
2022/06/29 08:17:25;;;;;;;5.70;5.40;;;;;;;29.22;100.00;99713.22;1653067;84;21147;-54
2022/06/29 08:19:52;;;;;;;4.87;4.55;;;;;;;29.32;100.00;99704.06;1656870;84;21549;-57
2022/06/29 08:22:20;;;;;;;5.60;5.40;;;;;;;29.39;100.00;99705.03;1655485;84;22243;-56
2022/06/29 08:24:46;;;;;;;4.60;4.30;;;;;;;29.40;100.00;99703.12;1650553;84;21059;-54
2022/06/29 08:27:12;;;;;;;4.95;4.65;;;;;;;29.44;100.00;99707.20;1650827;84;21642;-57
2022/06/29 08:29:39;;;;;;;5.67;5.15;;;;;;;29.42;100.00;99703.79;1652128;84;21039;-57
2022/06/29 08:32:07;;;;;;;5.03;4.10;;;;;;;29.42;100.00;99703.79;1651383;84;21098;-57
2022/06/29 08:34:42;;;;;;;4.30;3.98;;;;;;;29.49;100.00;99705.58;1656446;85;22900;-56
2022/06/29 08:37:02;;;;;;;3.77;3.58;;;;;;;29.59;100.00;99710.80;1654137;84;21617;-55
2022/06/29 08:39:29;;;;;;;4.03;3.77;;;;;;;29.69;100.00;99707.16;1656398;84;21509;-54
2022/06/29 08:41:56;;;;;;;3.65;3.42;;;;;;;29.76;100.00;99710.87;1654432;84;21046;-57
2022/06/29 08:44:23;;;;;;;3.65;3.30;;;;;;;29.79;100.00;99709.59;1639935;84;21118;-57
2022/06/29 08:46:49;;;;;;;2.77;2.60;;;;;;;29.81;100.00;99704.19;1656457;84;21174;-57
2022/06/29 08:49:15;;;;;;;2.60;2.50;;;;;;;29.87;100.00;99706.16;1653781;84;21520;-55
2022/06/29 08:51:42;;;;;;;2.25;2.10;;;;;;;29.94;100.00;99701.56;1652337;84;21157;-55
2022/06/29 08:54:08;;;;;;;3.12;2.58;;;;;;;30.02;100.00;99704.22;1654968;84;22058;-57
2022/06/29 08:56:35;;;;;;;2.65;2.52;;;;;;;30.11;100.00;99702.69;1651027;84;21109;-59
2022/06/29 08:59:03;;;;;;;2.37;2.17;;;;;;;30.19;100.00;99694.22;1648795;84;21551;-56
2022/06/29 09:01:30;;;;;;;3.05;2.85;;;;;;;30.25;100.00;99700.34;1653215;84;21465;-54
2022/06/29 09:03:57;;;;;;;2.55;2.45;;;;;;;30.34;100.00;99699.98;1648631;84;21627;-57
2022/06/29 09:06:23;;;;;;;2.92;2.77;;;;;;;30.42;100.00;99697.58;1649956;84;21062;-59
2022/06/29 09:08:50;;;;;;;3.70;3.40;;;;;;;30.51;100.00;99695.51;1652595;84;21548;-55
2022/06/29 09:11:28;;;;;;;2.67;2.55;;;;;;;30.58;100.00;99695.05;1651467;84;21039;-55
2022/06/29 09:14:19;;;;;;;2.60;2.40;;;;;;;30.64;100.00;99695.61;1653510;84;21110;-57
2022/06/29 09:16:59;;;;;;;2.52;2.33;;;;;;;30.62;100.00;99697.23;1638852;84;21090;-58
2022/06/29 09:19:37;;;;;;;19.62;4.58;;;;;;;30.60;100.00;99699.34;1649744;84;21111;-59
2022/06/29 09:22:03;;;;;;;4.60;3.15;;;;;;;30.60;100.00;99697.95;1651503;84;21138;-59
2022/06/29 09:24:32;;;;;;;5.00;2.98;;;;;;;30.60;100.00;99702.13;1651494;84;21091;-56
2022/06/29 09:27:02;;;;;;;3.80;3.60;;;;;;;30.62;100.00;99699.15;1654151;84;21074;-62
2022/06/29 09:29:39;;;;;;;3.42;2.87;;;;;;;30.61;100.00;99694.13;1593483;88;21940;-57
2022/06/29 09:32:13;;;;;;;3.47;2.60;;;;;;;30.64;100.00;99692.83;1595230;88;21524;-55
2022/06/29 09:34:46;;;;;;;4.22;3.52;;;;;;;30.65;100.00;99688.47;1621527;86;21130;-54
2022/06/29 09:37:21;;;;;;;4.12;2.47;;;;;;;30.68;100.00;99693.63;1626020;86;21126;-57
2022/06/29 09:39:50;;;;;;;2.65;2.42;;;;;;;30.75;100.00;99690.34;1614910;86;21507;-60
2022/06/29 09:42:24;;;;;;;1.98;1.87;;;;;;;30.82;100.00;99698.18;1617097;86;21149;-57
2022/06/29 09:44:52;;;;;;;2.33;2.22;;;;;;;30.91;100.00;99683.58;1652236;84;20916;-57
2022/06/29 09:47:20;;;;;;;3.62;3.22;;;;;;;31.02;100.00;99683.00;1653036;84;20980;-55
2022/06/29 09:49:52;;;;;;;2.75;2.58;;;;;;;31.10;100.00;99681.46;1655453;84;21814;-55
2022/06/29 09:52:19;;;;;;;4.60;3.08;;;;;;;31.09;100.00;99678.89;1652544;84;21537;-55
2022/06/29 09:54:52;;;;;;;2.70;2.50;;;;;;;31.04;100.00;99677.24;1655775;84;21002;-56
2022/06/29 09:57:20;;;;;;;2.95;2.72;;;;;;;30.97;100.00;99672.16;1651938;85;21630;-58
2022/06/29 10:02:46;;;;;;;3.15;2.65;;;;;;;30.93;100.00;99675.05;1654422;85;21186;-59
2022/06/29 10:05:15;;;;;;;2.83;2.62;;;;;;;30.94;100.00;99669.81;1655217;85;21264;-58
2022/06/29 10:07:48;;;;;;;2.85;2.75;;;;;;;30.99;100.00;99666.73;1651887;85;21753;-56
2022/06/29 10:10:16;;;;;;;6.00;3.50;;;;;;;31.03;100.00;99663.88;1660290;84;20907;-57
2022/06/29 10:16:16;;;;;;;4.62;3.42;;;;;;;31.04;100.00;99665.59;1598628;88;21027;-57
2022/06/29 10:18:57;;;;;;;4.17;3.37;;;;;;;31.02;100.00;99666.33;1592074;88;20997;-58
2022/06/29 10:21:27;;;;;;;3.00;2.72;;;;;;;31.00;100.00;99661.50;1599234;87;21010;-55
2022/06/29 10:23:55;;;;;;;3.60;3.00;;;;;;;30.99;100.00;99653.36;1619324;86;21430;-60
2022/06/29 10:26:36;;;;;;;5.17;2.90;;;;;;;31.05;100.00;99651.16;1614961;86;21105;-58
2022/06/29 10:29:20;;;;;;;11.48;3.98;;;;;;;31.12;100.00;99644.59;1613018;86;21303;-59
2022/06/29 10:32:06;;;;;;;3.22;2.92;;;;;;;31.23;100.00;99637.54;1619814;86;22204;-59
2022/06/29 10:35:37;;;;;;;3.33;2.80;;;;;;;31.32;100.00;99636.28;1617745;86;21493;-56
2022/06/29 10:37:15;;;;;;;3.15;2.98;;;;;;;31.38;100.00;99630.44;1601849;87;21193;-57
2022/06/29 10:39:51;;;;;;;3.27;2.67;;;;;;;31.43;100.00;99621.77;1619163;86;21663;-59
2022/06/29 10:45:21;;;;;;;3.52;2.65;;;;;;;31.44;100.00;99616.53;1616842;86;21039;-55
2022/06/29 10:48:07;;;;;;;3.08;2.40;;;;;;;31.43;100.00;99610.64;1621665;86;21086;-56
2022/06/29 10:50:35;;;;;;;3.22;3.05;;;;;;;31.47;100.00;99604.13;1618615;86;21453;-61
2022/06/29 10:53:10;;;;;;;2.22;1.98;;;;;;;31.55;100.00;99602.53;1619872;86;21157;-55
2022/06/29 10:55:44;;;;;;;2.65;2.45;;;;;;;31.64;100.00;99598.52;1618130;86;21256;-58
2022/06/29 10:58:11;;;;;;;6.75;2.25;;;;;;;31.75;100.00;99599.77;1623483;86;21070;-57
2022/06/29 11:00:51;;;;;;;3.20;3.00;;;;;;;31.85;100.00;99598.28;1618051;86;21146;-55
2022/06/29 11:03:20;;;;;;;3.55;2.85;;;;;;;31.97;100.00;99590.69;1616222;86;21103;-52
2022/06/29 11:15:39;;;;;;;2.30;2.20;;;;;;;32.26;100.00;99597.19;1591677;88;21082;-60
2022/06/29 11:16:36;;;;;;;1.92;1.80;;;;;;;32.35;100.00;99590.84;1647522;84;21047;-58
2022/06/29 11:19:04;;;;;;;3.75;2.40;;;;;;;32.42;100.00;99584.17;1654964;84;21604;-56
2022/06/29 11:21:31;;;;;;;2.30;2.05;;;;;;;32.50;100.00;99587.25;1649692;84;22001;-58
2022/06/29 11:24:03;;;;;;;2.60;2.40;;;;;;;32.53;100.00;99581.25;1660982;84;21615;-54
2022/06/29 11:26:31;;;;;;;3.37;2.50;;;;;;;32.49;100.00;99576.68;1654895;84;21086;-61
2022/06/29 11:28:58;;;;;;;1.85;1.75;;;;;;;32.41;100.00;99569.10;1651402;84;21118;-55
2022/06/29 11:31:25;;;;;;;2.45;1.90;;;;;;;32.31;100.00;99562.59;1650535;85;21090;-55
2022/06/29 11:33:57;;;;;;;2.20;2.02;;;;;;;32.25;100.00;99557.88;1653107;84;21333;-58
2022/06/29 11:36:27;;;;;;;1.80;1.70;;;;;;;32.23;100.00;99553.08;1650658;84;21077;-57
2022/06/29 11:38:55;;;;;;;2.67;1.55;;;;;;;32.20;100.00;99549.33;1650818;85;21114;-57
2022/06/29 11:41:26;;;;;;;3.00;2.10;;;;;;;32.23;100.00;99544.73;1652238;84;21043;-55
2022/06/29 11:44:05;;;;;;;2.15;1.95;;;;;;;32.30;100.00;99540.84;1654175;84;21667;-58
2022/06/29 11:46:36;;;;;;;1.75;1.65;;;;;;;32.41;100.00;99535.67;1619244;85;22210;-56
2022/06/29 11:51:52;;;;;;;6.53;1.72;;;;;;;32.54;100.00;99517.50;1652808;84;21090;-60
2022/06/29 11:54:37;;;;;;;1.50;1.40;;;;;;;32.60;100.00;99509.64;1652239;84;21447;-57
2022/06/29 11:57:09;;;;;;;1.87;1.65;;;;;;;32.65;100.00;99503.73;1656582;84;21588;-56